createdAt,value
2019-03-31T00:01:56.643Z,10.70
2019-03-31T00:04:27.918Z,10.70
2019-03-31T00:06:59.142Z,10.60
2019-03-31T00:09:30.588Z,10.40
2019-03-31T00:12:01.823Z,10.40
2019-03-31T00:14:33.171Z,10.40
2019-03-31T00:17:04.499Z,10.40
2019-03-31T00:19:35.744Z,10.40
2019-03-31T00:22:07.123Z,10.30
2019-03-31T00:24:38.365Z,10.30
2019-03-31T00:27:09.546Z,10.30
2019-03-31T00:29:40.811Z,10.30
2019-03-31T00:32:13.353Z,10.40
2019-03-31T00:34:44.601Z,10.30
2019-03-31T00:37:15.879Z,10.20
2019-03-31T00:39:47.127Z,10.20
2019-03-31T00:42:18.331Z,10.10
2019-03-31T00:44:49.585Z,10.10
2019-03-31T00:47:20.819Z,10.10
2019-03-31T00:49:52.081Z,10.10
2019-03-31T00:52:23.333Z,10.10
2019-03-31T00:54:54.497Z,10.10
2019-03-31T00:57:25.776Z,10.00
2019-03-31T00:59:57.028Z,10.00
2019-03-31T01:02:31.029Z,10.00
2019-03-31T01:05:02.659Z,9.90
2019-03-31T01:07:33.899Z,9.90
2019-03-31T01:10:05.518Z,9.90
2019-03-31T01:12:36.836Z,9.90
2019-03-31T01:15:13.847Z,9.90
2019-03-31T01:17:45.461Z,9.90
2019-03-31T01:20:16.684Z,9.80
2019-03-31T01:22:47.965Z,9.80
2019-03-31T01:25:19.713Z,9.80
2019-03-31T01:27:51.009Z,9.80
2019-03-31T01:30:22.758Z,9.70
2019-03-31T01:32:54.348Z,9.70
2019-03-31T01:35:25.739Z,9.60
2019-03-31T01:37:56.993Z,9.60
2019-03-31T01:40:28.287Z,9.60
2019-03-31T01:42:59.548Z,9.60
2019-03-31T01:45:30.720Z,9.60
2019-03-31T01:48:02.080Z,9.60
2019-03-31T01:50:33.377Z,9.50
2019-03-31T01:53:04.654Z,9.50
2019-03-31T01:55:36.069Z,9.50
2019-03-31T01:58:07.373Z,9.50
2019-03-31T02:00:41.334Z,9.50
2019-03-31T02:03:12.617Z,9.50
2019-03-31T02:05:43.920Z,9.50
2019-03-31T02:08:15.291Z,9.50
2019-03-31T02:10:46.501Z,9.50
2019-03-31T02:13:17.739Z,9.50
2019-03-31T02:15:48.993Z,9.40
2019-03-31T02:18:20.180Z,9.40
2019-03-31T02:20:51.404Z,9.40
2019-03-31T02:23:22.651Z,9.40
2019-03-31T02:25:53.861Z,9.40
2019-03-31T02:28:25.095Z,9.30
2019-03-31T02:30:56.343Z,9.30
2019-03-31T02:33:27.522Z,9.30
2019-03-31T02:35:58.773Z,9.30
2019-03-31T02:38:29.933Z,9.30
2019-03-31T02:41:03.712Z,9.30
2019-03-31T02:43:34.925Z,9.30
2019-03-31T02:46:06.190Z,9.20
2019-03-31T02:48:37.395Z,9.20
2019-03-31T02:51:08.807Z,9.20
2019-03-31T02:53:40.171Z,9.20
2019-03-31T02:56:12.817Z,9.20
2019-03-31T02:58:44.172Z,9.10
2019-03-31T03:01:16.725Z,9.10
2019-03-31T03:03:50.564Z,9.00
2019-03-31T03:06:23.387Z,9.00
2019-03-31T03:08:56.700Z,9.00
2019-03-31T03:11:31.301Z,9.00
2019-03-31T03:14:05.353Z,9.00
2019-03-31T03:16:36.601Z,8.90
2019-03-31T03:19:07.860Z,8.90
2019-03-31T03:21:39.109Z,8.90
2019-03-31T03:24:10.389Z,8.90
2019-03-31T03:26:41.638Z,8.90
2019-03-31T03:29:12.868Z,8.80
2019-03-31T03:31:44.105Z,8.80
2019-03-31T03:34:15.332Z,8.70
2019-03-31T03:36:46.550Z,8.70
2019-03-31T03:39:17.779Z,8.70
2019-03-31T03:41:49.027Z,8.70
2019-03-31T03:44:21.516Z,8.70
2019-03-31T03:46:52.762Z,8.80
2019-03-31T03:49:23.972Z,8.80
2019-03-31T03:51:55.236Z,8.70
2019-03-31T03:54:26.461Z,8.70
2019-03-31T03:56:57.683Z,8.70
2019-03-31T03:59:28.892Z,8.80
2019-03-31T04:02:00.106Z,8.70
2019-03-31T04:04:31.332Z,8.60
2019-03-31T04:07:02.577Z,8.60
2019-03-31T04:09:33.788Z,8.60
2019-03-31T04:12:05.069Z,8.60
2019-03-31T04:14:36.295Z,8.50
2019-03-31T04:17:07.525Z,8.40
2019-03-31T04:19:38.735Z,8.40
2019-03-31T04:22:09.980Z,8.40
2019-03-31T04:24:41.223Z,8.40
2019-03-31T04:27:12.518Z,8.40
2019-03-31T04:29:43.743Z,8.40
2019-03-31T04:32:15.139Z,8.40
2019-03-31T04:34:46.749Z,8.30
2019-03-31T04:37:18.066Z,8.40
2019-03-31T04:39:49.903Z,8.40
2019-03-31T04:42:21.321Z,8.40
2019-03-31T04:44:52.712Z,8.40
2019-03-31T04:47:24.071Z,8.40
2019-03-31T04:49:55.458Z,8.40
2019-03-31T04:52:26.704Z,8.40
2019-03-31T04:54:58.239Z,8.30
2019-03-31T04:57:29.487Z,8.30
2019-03-31T05:00:00.749Z,8.20
2019-03-31T05:02:32.407Z,8.30
2019-03-31T05:05:03.805Z,8.30
2019-03-31T05:07:35.528Z,8.20
2019-03-31T05:10:07.738Z,8.20
2019-03-31T05:12:40.117Z,8.20
2019-03-31T05:15:11.570Z,8.20
2019-03-31T05:17:43.256Z,8.20
2019-03-31T05:20:14.670Z,8.20
2019-03-31T05:22:46.389Z,8.20
2019-03-31T05:25:17.807Z,8.30
2019-03-31T05:27:49.519Z,8.40
2019-03-31T05:30:20.823Z,8.40
2019-03-31T05:32:52.415Z,8.40
2019-03-31T05:35:26.889Z,8.40
2019-03-31T05:37:57.489Z,8.50
2019-03-31T05:40:30.708Z,8.50
2019-03-31T05:43:03.069Z,8.60
2019-03-31T05:45:34.367Z,8.70
2019-03-31T05:48:06.200Z,8.70
2019-03-31T05:50:37.703Z,8.80
2019-03-31T05:53:09.379Z,8.90
2019-03-31T05:55:41.013Z,9.00
2019-03-31T05:58:12.652Z,9.10
2019-03-31T06:00:48.055Z,9.10
2019-03-31T06:03:19.333Z,9.30
2019-03-31T06:05:50.711Z,9.30
2019-03-31T06:08:22.323Z,9.40
2019-03-31T06:10:53.786Z,9.50
2019-03-31T06:13:25.105Z,9.50
2019-03-31T06:15:56.780Z,9.60
2019-03-31T06:18:28.446Z,9.70
2019-03-31T06:21:00.318Z,9.80
2019-03-31T06:23:31.895Z,9.90
2019-03-31T06:26:03.175Z,10.00
2019-03-31T06:28:34.829Z,10.10
2019-03-31T06:31:06.135Z,10.20
2019-03-31T06:33:37.370Z,10.30
2019-03-31T06:36:09.299Z,10.60
2019-03-31T06:38:40.887Z,11.20
2019-03-31T06:41:12.611Z,12.80
2019-03-31T06:43:44.084Z,14.70
2019-03-31T06:46:15.486Z,16.70
2019-03-31T06:48:47.209Z,18.10
2019-03-31T06:51:18.887Z,19.10
2019-03-31T06:53:50.402Z,19.90
2019-03-31T06:56:21.691Z,20.30
2019-03-31T06:58:53.501Z,20.80
2019-03-31T07:01:25.043Z,22.00
2019-03-31T07:03:56.543Z,23.00
2019-03-31T07:06:28.249Z,23.30
2019-03-31T07:09:00.611Z,24.40
2019-03-31T07:11:32.105Z,25.80
2019-03-31T07:14:03.679Z,26.80
2019-03-31T07:16:35.148Z,27.40
2019-03-31T07:19:09.842Z,27.60
2019-03-31T07:21:41.293Z,27.70
2019-03-31T07:24:12.727Z,27.90
2019-03-31T07:26:44.564Z,27.80
2019-03-31T07:29:16.433Z,27.70
2019-03-31T07:31:48.245Z,27.10
2019-03-31T07:34:20.743Z,26.50
2019-03-31T07:36:52.560Z,26.70
2019-03-31T07:39:24.272Z,27.70
2019-03-31T07:41:57.647Z,28.50
2019-03-31T07:44:29.582Z,29.30
2019-03-31T07:47:01.049Z,30.20
2019-03-31T07:49:32.528Z,30.40
2019-03-31T07:52:03.788Z,31.00
2019-03-31T07:54:35.055Z,31.60
2019-03-31T07:57:07.175Z,32.00
2019-03-31T07:59:40.063Z,32.30
2019-03-31T08:02:11.446Z,32.30
2019-03-31T08:04:42.728Z,32.80
2019-03-31T08:07:14.020Z,32.80
2019-03-31T08:09:45.314Z,32.80
2019-03-31T08:12:16.823Z,32.90
2019-03-31T08:14:48.619Z,32.40
2019-03-31T08:17:20.578Z,31.60
2019-03-31T08:19:52.200Z,31.30
2019-03-31T08:22:23.522Z,31.50
2019-03-31T08:24:54.774Z,31.70
2019-03-31T08:27:26.041Z,32.00
2019-03-31T08:30:00.745Z,32.50
2019-03-31T08:32:30.432Z,33.10
2019-03-31T08:35:01.899Z,33.70
2019-03-31T08:37:33.122Z,34.50
2019-03-31T08:40:04.531Z,33.30
2019-03-31T08:42:36.583Z,33.70
2019-03-31T08:45:08.331Z,33.90
2019-03-31T08:47:39.876Z,34.80
2019-03-31T08:50:12.128Z,35.20
2019-03-31T08:52:43.392Z,35.00
2019-03-31T08:55:15.379Z,35.40
2019-03-31T08:57:46.612Z,36.10
2019-03-31T09:00:33.130Z,36.30
2019-03-31T09:03:04.493Z,37.10
2019-03-31T09:05:35.732Z,37.50
2019-03-31T09:08:07.168Z,37.70
2019-03-31T09:10:38.495Z,37.70
2019-03-31T09:13:09.811Z,38.20
2019-03-31T09:15:41.084Z,38.70
2019-03-31T09:18:12.331Z,39.00
2019-03-31T09:20:43.605Z,39.20
2019-03-31T09:23:14.882Z,39.60
2019-03-31T09:25:47.802Z,39.30
2019-03-31T09:28:19.440Z,39.70
2019-03-31T09:30:52.851Z,39.50
2019-03-31T09:33:24.716Z,39.10
2019-03-31T09:35:56.322Z,38.90
2019-03-31T09:38:27.677Z,39.60
2019-03-31T09:40:59.462Z,40.40
2019-03-31T09:43:31.120Z,40.40
2019-03-31T09:46:02.712Z,40.60
2019-03-31T09:48:34.352Z,40.10
2019-03-31T09:51:05.874Z,38.10
2019-03-31T09:53:37.289Z,38.40
2019-03-31T09:56:08.707Z,38.80
2019-03-31T09:58:40.504Z,38.30
2019-03-31T10:01:11.815Z,37.30
2019-03-31T10:03:43.086Z,37.40
2019-03-31T10:06:14.374Z,37.90
2019-03-31T10:08:45.817Z,38.40
2019-03-31T10:11:17.081Z,38.90
2019-03-31T10:13:48.366Z,39.10
2019-03-31T10:16:19.648Z,39.80
2019-03-31T10:18:51.143Z,39.90
2019-03-31T10:21:22.616Z,39.70
2019-03-31T10:23:55.373Z,40.30
2019-03-31T10:26:32.152Z,40.40
2019-03-31T10:29:02.700Z,40.60
2019-03-31T10:31:35.255Z,40.20
2019-03-31T10:34:08.398Z,40.90
2019-03-31T10:36:44.799Z,40.60
2019-03-31T10:39:13.591Z,40.70
2019-03-31T10:41:44.858Z,40.50
2019-03-31T10:44:16.573Z,38.90
2019-03-31T10:46:47.984Z,38.50
2019-03-31T10:49:19.293Z,38.40
2019-03-31T10:51:51.332Z,37.80
2019-03-31T10:54:22.774Z,38.00
2019-03-31T10:56:55.273Z,37.80
2019-03-31T10:59:26.752Z,37.00
2019-03-31T11:01:59.028Z,36.80
2019-03-31T11:04:30.309Z,37.50
2019-03-31T11:07:03.487Z,36.70
2019-03-31T11:09:34.740Z,36.00
2019-03-31T11:12:11.096Z,37.00
2019-03-31T11:14:42.372Z,38.00
2019-03-31T11:17:13.895Z,37.60
2019-03-31T11:19:45.196Z,37.80
2019-03-31T11:22:26.672Z,37.00
2019-03-31T11:24:58.250Z,36.10
2019-03-31T11:27:32.807Z,34.00
2019-03-31T11:30:04.451Z,32.90
2019-03-31T11:32:35.752Z,31.40
2019-03-31T11:35:07.719Z,29.70
2019-03-31T11:37:39.152Z,28.50
2019-03-31T11:40:11.440Z,27.70
2019-03-31T11:42:43.475Z,27.10
2019-03-31T11:45:15.205Z,26.40
2019-03-31T11:47:46.499Z,25.80
2019-03-31T11:50:19.728Z,24.90
2019-03-31T11:52:52.989Z,24.60
2019-03-31T11:55:24.367Z,23.80
2019-03-31T11:57:55.635Z,23.70
2019-03-31T12:00:28.527Z,23.60
2019-03-31T12:02:59.802Z,23.70
2019-03-31T12:05:31.084Z,23.60
2019-03-31T12:08:03.112Z,23.30
2019-03-31T12:10:34.414Z,23.30
2019-03-31T12:13:05.970Z,23.20
2019-03-31T12:15:37.245Z,23.30
2019-03-31T12:18:08.479Z,23.10
2019-03-31T12:20:39.711Z,22.80
2019-03-31T12:23:10.956Z,22.60
2019-03-31T12:25:42.201Z,22.30
2019-03-31T12:28:13.449Z,22.40
2019-03-31T12:30:44.777Z,22.40
2019-03-31T12:33:15.993Z,22.40
2019-03-31T12:35:47.272Z,22.30
2019-03-31T12:38:18.533Z,22.30
2019-03-31T12:40:49.776Z,22.50
2019-03-31T12:43:21.001Z,22.20
2019-03-31T12:45:52.274Z,22.10
2019-03-31T12:48:23.494Z,21.90
2019-03-31T12:50:54.716Z,21.80
2019-03-31T12:53:26.507Z,21.70
2019-03-31T12:56:00.484Z,21.70
2019-03-31T12:58:31.904Z,21.90
2019-03-31T13:01:03.707Z,22.20
2019-03-31T13:03:35.394Z,22.40
2019-03-31T13:06:06.863Z,22.60
2019-03-31T13:08:38.761Z,22.50
2019-03-31T13:11:10.442Z,22.20
2019-03-31T13:13:41.765Z,22.10
2019-03-31T13:16:13.057Z,22.00
2019-03-31T13:18:44.613Z,22.00
2019-03-31T13:21:15.887Z,22.00
2019-03-31T13:23:47.158Z,22.00
2019-03-31T13:26:18.457Z,22.00
2019-03-31T13:28:49.727Z,21.90
2019-03-31T13:31:21.042Z,21.80
2019-03-31T13:33:52.345Z,21.50
2019-03-31T13:36:23.619Z,21.20
2019-03-31T13:38:54.888Z,21.40
2019-03-31T13:41:26.049Z,21.40
2019-03-31T13:43:57.324Z,21.50
2019-03-31T13:46:28.582Z,21.60
2019-03-31T13:48:59.847Z,21.80
2019-03-31T13:51:31.446Z,22.00
2019-03-31T13:54:02.714Z,22.10
2019-03-31T13:56:34.162Z,22.00
2019-03-31T13:59:08.987Z,22.30
2019-03-31T14:01:38.612Z,22.40
2019-03-31T14:04:09.978Z,22.20
2019-03-31T14:06:41.246Z,22.20
2019-03-31T14:09:12.514Z,22.40
2019-03-31T14:11:43.750Z,22.40
2019-03-31T14:14:15.377Z,22.50
2019-03-31T14:16:46.626Z,22.80
2019-03-31T14:19:17.873Z,22.70
2019-03-31T14:21:49.119Z,22.70
2019-03-31T14:24:20.408Z,22.60
2019-03-31T14:26:51.677Z,22.40
2019-03-31T14:29:22.933Z,21.90
2019-03-31T14:31:54.220Z,21.70
2019-03-31T14:34:25.690Z,21.80
2019-03-31T14:36:56.939Z,22.00
2019-03-31T14:39:28.240Z,22.00
2019-03-31T14:41:59.513Z,21.80
2019-03-31T14:44:30.761Z,21.60
2019-03-31T14:47:02.006Z,21.40
2019-03-31T14:49:33.320Z,21.20
2019-03-31T14:52:04.690Z,21.00
2019-03-31T14:54:35.930Z,20.70
2019-03-31T14:57:07.279Z,20.60
2019-03-31T14:59:38.578Z,20.40
2019-03-31T15:02:09.832Z,20.30
2019-03-31T15:04:41.147Z,20.10
2019-03-31T15:07:12.388Z,19.80
2019-03-31T15:09:43.709Z,19.80
2019-03-31T15:12:14.947Z,19.50
2019-03-31T15:14:46.244Z,19.40
2019-03-31T15:17:17.507Z,19.20
2019-03-31T15:19:48.765Z,19.10
2019-03-31T15:22:20.042Z,19.00
2019-03-31T15:24:51.299Z,19.00
2019-03-31T15:27:22.561Z,19.00
2019-03-31T15:29:53.930Z,19.10
2019-03-31T15:32:25.186Z,19.20
2019-03-31T15:34:56.499Z,19.10
2019-03-31T15:37:27.883Z,19.10
2019-03-31T15:39:59.173Z,19.00
2019-03-31T15:42:30.471Z,19.00
2019-03-31T15:45:02.832Z,18.90
2019-03-31T15:47:34.094Z,18.80
2019-03-31T15:50:05.591Z,18.70
2019-03-31T15:52:36.860Z,18.60
2019-03-31T15:55:08.849Z,18.60
2019-03-31T15:57:40.094Z,18.60
2019-03-31T16:00:14.855Z,18.40
2019-03-31T16:02:47.871Z,18.40
2019-03-31T16:05:19.209Z,18.30
2019-03-31T16:07:50.168Z,18.20
2019-03-31T16:10:20.600Z,18.20
2019-03-31T16:12:51.099Z,18.20
2019-03-31T16:15:21.625Z,18.10
2019-03-31T16:17:52.100Z,18.20
2019-03-31T16:20:22.573Z,18.00
2019-03-31T16:22:53.152Z,18.10
2019-03-31T16:25:42.496Z,18.10
2019-03-31T16:28:12.943Z,17.90
2019-03-31T16:30:43.703Z,17.80
2019-03-31T16:33:14.174Z,17.60
2019-03-31T16:35:44.648Z,17.70
2019-03-31T16:38:15.221Z,17.50
2019-03-31T16:40:45.678Z,17.60
2019-03-31T16:43:16.180Z,17.50
2019-03-31T16:45:46.997Z,17.50
2019-03-31T16:48:17.456Z,17.50
2019-03-31T16:50:47.885Z,17.50
2019-03-31T16:53:18.361Z,17.40
2019-03-31T16:55:48.949Z,17.20
2019-03-31T16:58:19.479Z,17.20
2019-03-31T17:00:49.927Z,17.10
2019-03-31T17:03:20.556Z,17.00
2019-03-31T17:05:51.366Z,16.90
2019-03-31T17:08:22.211Z,16.90
2019-03-31T17:10:54.604Z,16.80
2019-03-31T17:13:25.458Z,16.70
2019-03-31T17:15:56.550Z,16.70
2019-03-31T17:18:27.907Z,16.60
2019-03-31T17:20:59.474Z,16.50
2019-03-31T17:23:33.692Z,16.50
2019-03-31T17:26:04.990Z,16.30
2019-03-31T17:28:36.002Z,16.20
2019-03-31T17:31:06.735Z,16.00
2019-03-31T17:33:37.897Z,15.90
2019-03-31T17:36:08.568Z,15.90
2019-03-31T17:38:39.331Z,15.70
2019-03-31T17:41:12.734Z,15.70
2019-03-31T17:43:43.186Z,15.50
2019-03-31T17:46:13.661Z,15.40
2019-03-31T17:48:45.685Z,15.40
2019-03-31T17:51:16.137Z,15.30
2019-03-31T17:53:46.596Z,15.40
2019-03-31T17:56:17.169Z,15.30
2019-03-31T17:58:47.648Z,15.20
2019-03-31T18:01:18.107Z,15.10
2019-03-31T18:03:48.700Z,15.00
2019-03-31T18:06:21.491Z,14.90
2019-03-31T18:08:51.981Z,14.80
2019-03-31T18:11:22.476Z,14.70
2019-03-31T18:13:53.072Z,14.70
2019-03-31T18:16:23.550Z,14.60
2019-03-31T18:18:54.014Z,14.50
2019-03-31T18:21:27.247Z,14.50
2019-03-31T18:23:56.870Z,14.40
2019-03-31T18:26:27.367Z,14.30
2019-03-31T18:28:57.827Z,14.30
2019-03-31T18:31:28.382Z,14.20
2019-03-31T18:33:58.854Z,14.00
2019-03-31T18:36:36.370Z,14.00
2019-03-31T18:39:01.554Z,13.90
2019-03-31T18:41:32.005Z,13.90
2019-03-31T18:44:02.616Z,13.90
2019-03-31T18:46:33.134Z,13.80
2019-03-31T18:49:03.598Z,13.70
2019-03-31T18:51:34.059Z,13.60
2019-03-31T18:54:20.525Z,13.40
2019-03-31T18:57:16.048Z,13.30
2019-03-31T18:59:55.716Z,13.40
2019-03-31T19:02:33.290Z,13.30
2019-03-31T19:05:24.503Z,13.20
2019-03-31T19:08:12.742Z,13.20
2019-03-31T19:10:51.409Z,13.20
2019-03-31T19:13:55.509Z,13.10
2019-03-31T19:16:47.402Z,13.20
2019-03-31T19:19:42.796Z,13.10
2019-03-31T19:22:32.226Z,13.10
2019-03-31T19:25:24.630Z,13.10
2019-03-31T19:28:17.253Z,13.00
2019-03-31T19:30:54.442Z,12.90
2019-03-31T19:33:42.513Z,12.90
2019-03-31T19:36:26.394Z,12.70
2019-03-31T19:39:16.506Z,12.60
2019-03-31T19:42:14.928Z,12.70
2019-03-31T19:45:19.601Z,12.60
2019-03-31T19:48:00.886Z,12.60
2019-03-31T19:50:53.378Z,12.50
2019-03-31T19:53:45.563Z,12.60
2019-03-31T19:56:32.767Z,12.50
2019-03-31T19:59:34.428Z,12.50
2019-03-31T20:02:35.628Z,12.30
2019-03-31T20:05:19.268Z,12.30
2019-03-31T20:07:58.503Z,12.20
2019-03-31T20:10:42.657Z,12.20
2019-03-31T20:13:38.110Z,12.20
2019-03-31T20:16:18.241Z,12.20
2019-03-31T20:19:13.374Z,12.10
2019-03-31T20:21:48.384Z,11.90
2019-03-31T20:24:29.115Z,12.00
2019-03-31T20:27:17.782Z,12.00
2019-03-31T20:30:19.353Z,12.00
2019-03-31T20:32:57.828Z,11.90
2019-03-31T20:35:53.202Z,11.80
2019-03-31T20:38:32.395Z,11.70
2019-03-31T20:41:08.050Z,11.70
2019-03-31T20:43:55.384Z,11.60
2019-03-31T20:46:26.095Z,11.60
2019-03-31T20:48:56.532Z,11.40
2019-03-31T20:51:26.992Z,11.40
2019-03-31T20:53:57.422Z,11.50
2019-03-31T20:56:27.855Z,11.50
2019-03-31T20:58:58.291Z,11.40
2019-03-31T21:01:28.754Z,11.40
2019-03-31T21:03:59.184Z,11.40
2019-03-31T21:06:29.663Z,11.40
2019-03-31T21:09:00.112Z,11.40
2019-03-31T21:11:30.598Z,11.40
2019-03-31T21:14:01.105Z,11.40
2019-03-31T21:16:31.601Z,11.30
2019-03-31T21:19:02.097Z,11.30
2019-03-31T21:21:32.557Z,11.40
2019-03-31T21:24:03.008Z,11.40
2019-03-31T21:26:33.467Z,11.40
2019-03-31T21:29:03.926Z,11.40
2019-03-31T21:31:34.443Z,11.40
2019-03-31T21:34:05.482Z,11.30
2019-03-31T21:36:35.922Z,11.20
2019-03-31T21:39:08.765Z,11.10
2019-03-31T21:41:39.184Z,11.10
2019-03-31T21:44:09.625Z,11.10
2019-03-31T21:46:40.070Z,11.00
2019-03-31T21:49:10.633Z,10.90
2019-03-31T21:51:41.039Z,10.80
2019-03-31T21:54:11.484Z,10.80
2019-03-31T21:56:41.950Z,10.80
2019-03-31T21:59:12.413Z,10.80
2019-03-31T22:01:43.092Z,10.70
2019-03-31T22:04:13.556Z,10.70
2019-03-31T22:06:44.005Z,10.60
2019-03-31T22:09:14.464Z,10.60
2019-03-31T22:11:44.850Z,10.60
2019-03-31T22:14:15.315Z,10.40
2019-03-31T22:16:45.745Z,10.30
2019-03-31T22:19:16.227Z,10.30
2019-03-31T22:21:46.625Z,10.20
2019-03-31T22:24:17.244Z,10.20
2019-03-31T22:26:47.667Z,10.20
2019-03-31T22:29:18.107Z,10.00
2019-03-31T22:31:48.551Z,10.00
2019-03-31T22:34:18.989Z,10.00
2019-03-31T22:36:49.462Z,10.00
2019-03-31T22:39:19.985Z,9.90
2019-03-31T22:41:50.464Z,9.80
2019-03-31T22:44:20.910Z,9.80
2019-03-31T22:46:54.440Z,9.90
2019-03-31T22:49:23.548Z,9.90
2019-03-31T22:51:56.410Z,10.00
2019-03-31T22:54:26.189Z,9.80
2019-03-31T22:56:56.653Z,9.80
2019-03-31T22:59:27.094Z,9.80
2019-03-31T23:01:57.533Z,9.80
2019-03-31T23:04:27.967Z,9.70
2019-03-31T23:06:58.423Z,9.50
2019-03-31T23:09:28.828Z,9.60
2019-03-31T23:11:59.267Z,9.60
2019-03-31T23:14:29.692Z,9.60
2019-03-31T23:17:00.131Z,9.40
2019-03-31T23:19:30.513Z,9.50
2019-03-31T23:22:01.316Z,9.30
2019-03-31T23:24:31.730Z,9.30
2019-03-31T23:27:02.158Z,9.40
2019-03-31T23:29:32.688Z,9.30
2019-03-31T23:32:03.134Z,9.30
2019-03-31T23:34:33.540Z,9.40
2019-03-31T23:37:03.956Z,9.30
2019-03-31T23:39:34.362Z,9.10
2019-03-31T23:42:05.469Z,9.20
2019-03-31T23:44:36.649Z,9.00
2019-03-31T23:47:07.103Z,9.20
2019-03-31T23:49:37.514Z,9.20
2019-03-31T23:52:07.951Z,9.10
2019-03-31T23:54:38.355Z,9.00
2019-03-31T23:57:08.803Z,9.00
2019-03-31T23:59:39.482Z,9.00
